sensor_id;sensor_type;location;lat;lon;timestamp;P1;durP1;ratioP1;P2;durP2;ratioP2
35550;SDS011;21655;46.056;13.616;2022-10-19T00:01:51;59.28;;;33.97;;
35550;SDS011;21655;46.056;13.616;2022-10-19T00:04:17;52.65;;;32.13;;
35550;SDS011;21655;46.056;13.616;2022-10-19T00:06:43;53.45;;;30.15;;
35550;SDS011;21655;46.056;13.616;2022-10-19T00:09:10;60.50;;;31.00;;
35550;SDS011;21655;46.056;13.616;2022-10-19T00:11:39;54.33;;;30.67;;
35550;SDS011;21655;46.056;13.616;2022-10-19T00:14:06;50.45;;;30.58;;
35550;SDS011;21655;46.056;13.616;2022-10-19T00:16:34;49.63;;;29.63;;
35550;SDS011;21655;46.056;13.616;2022-10-19T00:19:02;50.20;;;29.55;;
35550;SDS011;21655;46.056;13.616;2022-10-19T00:21:30;49.70;;;30.42;;
35550;SDS011;21655;46.056;13.616;2022-10-19T00:23:55;49.42;;;30.02;;
35550;SDS011;21655;46.056;13.616;2022-10-19T00:26:21;56.08;;;31.80;;
35550;SDS011;21655;46.056;13.616;2022-10-19T00:28:46;60.45;;;31.10;;
35550;SDS011;21655;46.056;13.616;2022-10-19T00:31:14;56.65;;;31.75;;
35550;SDS011;21655;46.056;13.616;2022-10-19T00:33:41;60.10;;;30.75;;
35550;SDS011;21655;46.056;13.616;2022-10-19T00:36:28;49.72;;;31.50;;
35550;SDS011;21655;46.056;13.616;2022-10-19T00:38:55;51.05;;;31.60;;
35550;SDS011;21655;46.056;13.616;2022-10-19T00:41:21;48.70;;;30.73;;
35550;SDS011;21655;46.056;13.616;2022-10-19T00:46:17;53.80;;;31.30;;
35550;SDS011;21655;46.056;13.616;2022-10-19T00:48:42;54.67;;;31.02;;
35550;SDS011;21655;46.056;13.616;2022-10-19T00:51:08;56.75;;;31.70;;
35550;SDS011;21655;46.056;13.616;2022-10-19T00:53:33;51.22;;;31.23;;
35550;SDS011;21655;46.056;13.616;2022-10-19T00:56:02;49.42;;;30.50;;
35550;SDS011;21655;46.056;13.616;2022-10-19T00:58:33;46.80;;;30.30;;
35550;SDS011;21655;46.056;13.616;2022-10-19T01:01:00;58.03;;;33.00;;
35550;SDS011;21655;46.056;13.616;2022-10-19T01:03:28;54.40;;;32.88;;
35550;SDS011;21655;46.056;13.616;2022-10-19T01:05:53;55.80;;;32.28;;
35550;SDS011;21655;46.056;13.616;2022-10-19T01:08:19;59.22;;;30.98;;
35550;SDS011;21655;46.056;13.616;2022-10-19T01:10:59;49.47;;;31.15;;
35550;SDS011;21655;46.056;13.616;2022-10-19T01:19:14;53.78;;;31.15;;
35550;SDS011;21655;46.056;13.616;2022-10-19T01:22:18;52.05;;;31.10;;
35550;SDS011;21655;46.056;13.616;2022-10-19T01:24:51;53.35;;;31.48;;
35550;SDS011;21655;46.056;13.616;2022-10-19T01:30:00;49.83;;;29.85;;
35550;SDS011;21655;46.056;13.616;2022-10-19T01:35:25;52.33;;;31.17;;
35550;SDS011;21655;46.056;13.616;2022-10-19T01:38:01;48.45;;;30.08;;
35550;SDS011;21655;46.056;13.616;2022-10-19T01:44:16;48.75;;;29.42;;
35550;SDS011;21655;46.056;13.616;2022-10-19T01:46:30;55.38;;;29.10;;
35550;SDS011;21655;46.056;13.616;2022-10-19T01:49:06;49.20;;;29.52;;
35550;SDS011;21655;46.056;13.616;2022-10-19T01:51:37;59.00;;;28.52;;
35550;SDS011;21655;46.056;13.616;2022-10-19T01:54:07;44.67;;;29.30;;
35550;SDS011;21655;46.056;13.616;2022-10-19T01:56:36;49.65;;;29.88;;
35550;SDS011;21655;46.056;13.616;2022-10-19T01:59:06;49.95;;;29.00;;
35550;SDS011;21655;46.056;13.616;2022-10-19T02:01:34;48.95;;;28.83;;
35550;SDS011;21655;46.056;13.616;2022-10-19T02:04:03;47.85;;;29.33;;
35550;SDS011;21655;46.056;13.616;2022-10-19T02:06:29;47.83;;;29.65;;
35550;SDS011;21655;46.056;13.616;2022-10-19T02:08:55;44.38;;;26.95;;
35550;SDS011;21655;46.056;13.616;2022-10-19T02:11:20;50.28;;;28.65;;
35550;SDS011;21655;46.056;13.616;2022-10-19T02:13:48;48.60;;;28.52;;
35550;SDS011;21655;46.056;13.616;2022-10-19T02:16:28;46.58;;;28.85;;
35550;SDS011;21655;46.056;13.616;2022-10-19T02:18:58;47.95;;;28.63;;
35550;SDS011;21655;46.056;13.616;2022-10-19T02:21:26;52.08;;;29.40;;
35550;SDS011;21655;46.056;13.616;2022-10-19T02:23:52;55.63;;;29.92;;
35550;SDS011;21655;46.056;13.616;2022-10-19T02:26:17;45.53;;;27.63;;
35550;SDS011;21655;46.056;13.616;2022-10-19T02:28:43;52.50;;;30.70;;
35550;SDS011;21655;46.056;13.616;2022-10-19T02:31:09;46.45;;;28.55;;
35550;SDS011;21655;46.056;13.616;2022-10-19T02:33:35;48.17;;;28.27;;
35550;SDS011;21655;46.056;13.616;2022-10-19T02:36:00;49.88;;;28.42;;
35550;SDS011;21655;46.056;13.616;2022-10-19T02:38:26;55.97;;;29.08;;
35550;SDS011;21655;46.056;13.616;2022-10-19T02:41:00;54.88;;;28.75;;
35550;SDS011;21655;46.056;13.616;2022-10-19T02:43:36;53.17;;;29.40;;
35550;SDS011;21655;46.056;13.616;2022-10-19T02:46:08;56.45;;;29.80;;
35550;SDS011;21655;46.056;13.616;2022-10-19T02:48:37;55.50;;;29.02;;
35550;SDS011;21655;46.056;13.616;2022-10-19T02:51:05;51.38;;;28.65;;
35550;SDS011;21655;46.056;13.616;2022-10-19T02:53:31;46.08;;;27.33;;
35550;SDS011;21655;46.056;13.616;2022-10-19T02:55:56;46.70;;;27.45;;
35550;SDS011;21655;46.056;13.616;2022-10-19T02:58:21;46.83;;;28.15;;
35550;SDS011;21655;46.056;13.616;2022-10-19T03:00:47;44.60;;;26.20;;
35550;SDS011;21655;46.056;13.616;2022-10-19T03:03:12;46.80;;;27.15;;
35550;SDS011;21655;46.056;13.616;2022-10-19T03:05:38;43.83;;;26.73;;
35550;SDS011;21655;46.056;13.616;2022-10-19T03:08:03;42.47;;;27.15;;
35550;SDS011;21655;46.056;13.616;2022-10-19T03:10:29;51.03;;;27.92;;
35550;SDS011;21655;46.056;13.616;2022-10-19T03:12:56;50.53;;;28.58;;
35550;SDS011;21655;46.056;13.616;2022-10-19T03:15:22;48.97;;;28.80;;
35550;SDS011;21655;46.056;13.616;2022-10-19T03:17:51;45.83;;;26.77;;
35550;SDS011;21655;46.056;13.616;2022-10-19T03:20:17;50.25;;;26.38;;
35550;SDS011;21655;46.056;13.616;2022-10-19T03:22:42;47.40;;;28.05;;
35550;SDS011;21655;46.056;13.616;2022-10-19T03:25:08;43.28;;;26.80;;
35550;SDS011;21655;46.056;13.616;2022-10-19T03:27:33;46.95;;;26.30;;
35550;SDS011;21655;46.056;13.616;2022-10-19T03:29:59;41.38;;;25.65;;
35550;SDS011;21655;46.056;13.616;2022-10-19T03:32:24;51.97;;;26.98;;
35550;SDS011;21655;46.056;13.616;2022-10-19T03:34:49;48.28;;;26.95;;
35550;SDS011;21655;46.056;13.616;2022-10-19T03:37:15;45.35;;;25.98;;
35550;SDS011;21655;46.056;13.616;2022-10-19T03:39:40;42.35;;;25.27;;
35550;SDS011;21655;46.056;13.616;2022-10-19T03:42:06;44.40;;;25.45;;
35550;SDS011;21655;46.056;13.616;2022-10-19T03:44:31;46.20;;;25.75;;
35550;SDS011;21655;46.056;13.616;2022-10-19T03:46:56;43.40;;;25.83;;
35550;SDS011;21655;46.056;13.616;2022-10-19T03:49:22;46.88;;;26.10;;
35550;SDS011;21655;46.056;13.616;2022-10-19T03:51:47;50.88;;;27.55;;
35550;SDS011;21655;46.056;13.616;2022-10-19T03:54:13;46.63;;;26.73;;
35550;SDS011;21655;46.056;13.616;2022-10-19T03:56:40;48.58;;;26.05;;
35550;SDS011;21655;46.056;13.616;2022-10-19T03:59:06;46.13;;;26.08;;
35550;SDS011;21655;46.056;13.616;2022-10-19T04:01:36;42.60;;;26.15;;
35550;SDS011;21655;46.056;13.616;2022-10-19T04:04:04;41.53;;;26.23;;
35550;SDS011;21655;46.056;13.616;2022-10-19T04:06:35;41.08;;;26.13;;
35550;SDS011;21655;46.056;13.616;2022-10-19T04:09:03;46.40;;;24.77;;
35550;SDS011;21655;46.056;13.616;2022-10-19T04:11:30;45.00;;;25.08;;
35550;SDS011;21655;46.056;13.616;2022-10-19T04:13:57;44.97;;;24.60;;
35550;SDS011;21655;46.056;13.616;2022-10-19T04:16:23;39.22;;;24.65;;
35550;SDS011;21655;46.056;13.616;2022-10-19T04:18:50;36.55;;;24.92;;
35550;SDS011;21655;46.056;13.616;2022-10-19T04:21:22;42.72;;;24.48;;
35550;SDS011;21655;46.056;13.616;2022-10-19T04:23:49;40.22;;;24.58;;
35550;SDS011;21655;46.056;13.616;2022-10-19T04:26:16;44.70;;;25.80;;
35550;SDS011;21655;46.056;13.616;2022-10-19T04:28:42;42.13;;;24.58;;
35550;SDS011;21655;46.056;13.616;2022-10-19T04:31:07;42.10;;;23.95;;
35550;SDS011;21655;46.056;13.616;2022-10-19T04:33:33;44.42;;;24.23;;
35550;SDS011;21655;46.056;13.616;2022-10-19T04:35:59;37.40;;;24.65;;
35550;SDS011;21655;46.056;13.616;2022-10-19T04:38:25;44.20;;;24.67;;
35550;SDS011;21655;46.056;13.616;2022-10-19T04:40:51;37.92;;;22.08;;
35550;SDS011;21655;46.056;13.616;2022-10-19T04:43:16;36.78;;;22.45;;
35550;SDS011;21655;46.056;13.616;2022-10-19T04:45:42;39.47;;;24.38;;
35550;SDS011;21655;46.056;13.616;2022-10-19T04:48:07;38.13;;;24.02;;
35550;SDS011;21655;46.056;13.616;2022-10-19T04:50:33;36.53;;;22.38;;
35550;SDS011;21655;46.056;13.616;2022-10-19T04:52:58;37.13;;;23.00;;
35550;SDS011;21655;46.056;13.616;2022-10-19T04:55:23;42.00;;;23.40;;
35550;SDS011;21655;46.056;13.616;2022-10-19T04:57:49;42.92;;;23.73;;
35550;SDS011;21655;46.056;13.616;2022-10-19T05:00:14;40.47;;;24.55;;
35550;SDS011;21655;46.056;13.616;2022-10-19T05:02:43;37.60;;;23.10;;
35550;SDS011;21655;46.056;13.616;2022-10-19T05:05:09;37.90;;;23.70;;
35550;SDS011;21655;46.056;13.616;2022-10-19T05:07:35;36.42;;;23.30;;
35550;SDS011;21655;46.056;13.616;2022-10-19T05:10:01;44.60;;;24.70;;
35550;SDS011;21655;46.056;13.616;2022-10-19T05:12:26;47.65;;;23.17;;
35550;SDS011;21655;46.056;13.616;2022-10-19T05:14:51;38.33;;;23.15;;
35550;SDS011;21655;46.056;13.616;2022-10-19T05:17:17;38.05;;;23.73;;
35550;SDS011;21655;46.056;13.616;2022-10-19T05:19:42;35.70;;;22.75;;
35550;SDS011;21655;46.056;13.616;2022-10-19T05:22:07;37.30;;;22.15;;
35550;SDS011;21655;46.056;13.616;2022-10-19T05:24:33;33.45;;;21.75;;
35550;SDS011;21655;46.056;13.616;2022-10-19T05:26:58;42.08;;;22.25;;
35550;SDS011;21655;46.056;13.616;2022-10-19T05:29:24;41.25;;;22.05;;
35550;SDS011;21655;46.056;13.616;2022-10-19T05:31:49;50.50;;;22.58;;
35550;SDS011;21655;46.056;13.616;2022-10-19T05:34:14;36.92;;;22.38;;
35550;SDS011;21655;46.056;13.616;2022-10-19T05:36:40;39.60;;;22.95;;
35550;SDS011;21655;46.056;13.616;2022-10-19T05:39:07;39.70;;;22.52;;
35550;SDS011;21655;46.056;13.616;2022-10-19T05:41:41;41.58;;;21.80;;
35550;SDS011;21655;46.056;13.616;2022-10-19T05:44:09;41.08;;;22.40;;
35550;SDS011;21655;46.056;13.616;2022-10-19T05:46:38;38.72;;;22.42;;
35550;SDS011;21655;46.056;13.616;2022-10-19T05:49:03;41.42;;;23.60;;
35550;SDS011;21655;46.056;13.616;2022-10-19T05:51:29;40.55;;;21.60;;
35550;SDS011;21655;46.056;13.616;2022-10-19T05:53:55;39.80;;;20.95;;
35550;SDS011;21655;46.056;13.616;2022-10-19T05:56:24;34.92;;;21.98;;
35550;SDS011;21655;46.056;13.616;2022-10-19T05:58:51;40.03;;;21.23;;
35550;SDS011;21655;46.056;13.616;2022-10-19T06:01:17;38.90;;;20.90;;
35550;SDS011;21655;46.056;13.616;2022-10-19T06:03:44;37.67;;;21.45;;
35550;SDS011;21655;46.056;13.616;2022-10-19T06:06:10;32.95;;;20.75;;
35550;SDS011;21655;46.056;13.616;2022-10-19T06:08:36;31.70;;;19.92;;
35550;SDS011;21655;46.056;13.616;2022-10-19T06:11:13;34.78;;;21.38;;
35550;SDS011;21655;46.056;13.616;2022-10-19T06:13:41;34.88;;;21.20;;
35550;SDS011;21655;46.056;13.616;2022-10-19T06:16:07;32.55;;;20.50;;
35550;SDS011;21655;46.056;13.616;2022-10-19T06:18:34;34.50;;;20.13;;
35550;SDS011;21655;46.056;13.616;2022-10-19T06:21:00;35.15;;;19.83;;
35550;SDS011;21655;46.056;13.616;2022-10-19T06:23:31;27.90;;;19.63;;
35550;SDS011;21655;46.056;13.616;2022-10-19T06:25:56;41.58;;;20.45;;
35550;SDS011;21655;46.056;13.616;2022-10-19T06:28:22;34.10;;;18.63;;
35550;SDS011;21655;46.056;13.616;2022-10-19T06:30:48;31.52;;;18.73;;
35550;SDS011;21655;46.056;13.616;2022-10-19T06:33:13;31.90;;;19.73;;
35550;SDS011;21655;46.056;13.616;2022-10-19T06:35:39;32.55;;;20.00;;
35550;SDS011;21655;46.056;13.616;2022-10-19T06:38:07;27.98;;;18.27;;
35550;SDS011;21655;46.056;13.616;2022-10-19T06:40:33;30.30;;;19.17;;
35550;SDS011;21655;46.056;13.616;2022-10-19T06:42:59;27.38;;;17.30;;
35550;SDS011;21655;46.056;13.616;2022-10-19T06:45:24;21.73;;;14.82;;
35550;SDS011;21655;46.056;13.616;2022-10-19T06:47:50;20.83;;;13.90;;
35550;SDS011;21655;46.056;13.616;2022-10-19T06:50:15;34.47;;;14.85;;
35550;SDS011;21655;46.056;13.616;2022-10-19T06:52:41;26.92;;;12.52;;
35550;SDS011;21655;46.056;13.616;2022-10-19T06:55:06;20.52;;;10.93;;
35550;SDS011;21655;46.056;13.616;2022-10-19T06:57:32;22.77;;;10.27;;
35550;SDS011;21655;46.056;13.616;2022-10-19T06:59:58;14.45;;;10.30;;
35550;SDS011;21655;46.056;13.616;2022-10-19T07:02:23;19.52;;;11.10;;
35550;SDS011;21655;46.056;13.616;2022-10-19T07:04:48;16.13;;;10.07;;
35550;SDS011;21655;46.056;13.616;2022-10-19T07:07:14;18.90;;;10.13;;
35550;SDS011;21655;46.056;13.616;2022-10-19T07:09:39;23.80;;;10.70;;
35550;SDS011;21655;46.056;13.616;2022-10-19T07:12:05;21.65;;;10.55;;
35550;SDS011;21655;46.056;13.616;2022-10-19T07:14:30;15.23;;;9.05;;
35550;SDS011;21655;46.056;13.616;2022-10-19T07:17:02;16.15;;;9.32;;
35550;SDS011;21655;46.056;13.616;2022-10-19T07:19:28;12.52;;;9.05;;
35550;SDS011;21655;46.056;13.616;2022-10-19T07:21:53;14.25;;;8.73;;
35550;SDS011;21655;46.056;13.616;2022-10-19T07:24:19;14.35;;;8.43;;
35550;SDS011;21655;46.056;13.616;2022-10-19T07:26:44;13.73;;;8.70;;
35550;SDS011;21655;46.056;13.616;2022-10-19T07:29:10;16.52;;;9.05;;
35550;SDS011;21655;46.056;13.616;2022-10-19T07:31:35;13.65;;;8.98;;
35550;SDS011;21655;46.056;13.616;2022-10-19T07:34:02;15.07;;;8.80;;
35550;SDS011;21655;46.056;13.616;2022-10-19T07:36:29;17.35;;;8.80;;
35550;SDS011;21655;46.056;13.616;2022-10-19T07:38:56;11.18;;;8.10;;
35550;SDS011;21655;46.056;13.616;2022-10-19T07:41:23;13.75;;;8.32;;
35550;SDS011;21655;46.056;13.616;2022-10-19T07:43:50;22.00;;;7.88;;
35550;SDS011;21655;46.056;13.616;2022-10-19T07:46:17;12.35;;;8.20;;
35550;SDS011;21655;46.056;13.616;2022-10-19T07:48:47;17.70;;;8.23;;
35550;SDS011;21655;46.056;13.616;2022-10-19T07:51:13;16.83;;;8.48;;
35550;SDS011;21655;46.056;13.616;2022-10-19T07:53:40;16.48;;;8.23;;
35550;SDS011;21655;46.056;13.616;2022-10-19T07:56:16;13.00;;;7.63;;
35550;SDS011;21655;46.056;13.616;2022-10-19T07:58:48;12.02;;;7.97;;
35550;SDS011;21655;46.056;13.616;2022-10-19T08:01:16;13.02;;;7.05;;
35550;SDS011;21655;46.056;13.616;2022-10-19T08:03:52;11.85;;;7.95;;
35550;SDS011;21655;46.056;13.616;2022-10-19T08:06:19;21.60;;;7.32;;
35550;SDS011;21655;46.056;13.616;2022-10-19T08:08:46;12.98;;;7.95;;
35550;SDS011;21655;46.056;13.616;2022-10-19T08:13:39;13.23;;;7.88;;
35550;SDS011;21655;46.056;13.616;2022-10-19T08:16:05;13.48;;;7.43;;
35550;SDS011;21655;46.056;13.616;2022-10-19T08:18:43;22.80;;;13.55;;
35550;SDS011;21655;46.056;13.616;2022-10-19T08:21:08;13.85;;;8.98;;
35550;SDS011;21655;46.056;13.616;2022-10-19T08:23:34;20.02;;;9.38;;
35550;SDS011;21655;46.056;13.616;2022-10-19T08:25:59;21.50;;;10.48;;
35550;SDS011;21655;46.056;13.616;2022-10-19T08:28:25;14.38;;;8.50;;
35550;SDS011;21655;46.056;13.616;2022-10-19T08:30:50;10.68;;;8.45;;
35550;SDS011;21655;46.056;13.616;2022-10-19T08:33:16;16.67;;;7.90;;
35550;SDS011;21655;46.056;13.616;2022-10-19T08:35:41;11.43;;;7.85;;
35550;SDS011;21655;46.056;13.616;2022-10-19T08:38:06;13.18;;;7.85;;
35550;SDS011;21655;46.056;13.616;2022-10-19T08:40:32;12.48;;;7.65;;
35550;SDS011;21655;46.056;13.616;2022-10-19T08:43:07;11.48;;;6.88;;
35550;SDS011;21655;46.056;13.616;2022-10-19T08:48:24;11.00;;;7.82;;
35550;SDS011;21655;46.056;13.616;2022-10-19T08:50:50;10.45;;;6.97;;
35550;SDS011;21655;46.056;13.616;2022-10-19T08:53:30;18.75;;;7.88;;
35550;SDS011;21655;46.056;13.616;2022-10-19T09:04:09;13.45;;;7.95;;
35550;SDS011;21655;46.056;13.616;2022-10-19T09:06:47;15.57;;;7.32;;
35550;SDS011;21655;46.056;13.616;2022-10-19T09:09:33;11.52;;;7.10;;
35550;SDS011;21655;46.056;13.616;2022-10-19T09:12:04;13.27;;;7.40;;
35550;SDS011;21655;46.056;13.616;2022-10-19T09:14:32;11.80;;;7.30;;
35550;SDS011;21655;46.056;13.616;2022-10-19T09:17:04;19.98;;;8.23;;
35550;SDS011;21655;46.056;13.616;2022-10-19T09:19:36;13.25;;;7.82;;
35550;SDS011;21655;46.056;13.616;2022-10-19T09:22:03;13.98;;;7.55;;
35550;SDS011;21655;46.056;13.616;2022-10-19T09:27:01;11.93;;;7.30;;
35550;SDS011;21655;46.056;13.616;2022-10-19T09:32:43;10.07;;;6.93;;
35550;SDS011;21655;46.056;13.616;2022-10-19T09:37:47;12.93;;;7.15;;
35550;SDS011;21655;46.056;13.616;2022-10-19T09:40:16;16.50;;;6.80;;
35550;SDS011;21655;46.056;13.616;2022-10-19T09:42:47;12.45;;;7.28;;
35550;SDS011;21655;46.056;13.616;2022-10-19T09:51:01;13.82;;;7.10;;
35550;SDS011;21655;46.056;13.616;2022-10-19T09:53:27;11.85;;;6.80;;
35550;SDS011;21655;46.056;13.616;2022-10-19T09:56:04;10.85;;;6.53;;
35550;SDS011;21655;46.056;13.616;2022-10-19T09:58:31;14.70;;;6.60;;
35550;SDS011;21655;46.056;13.616;2022-10-19T10:00:57;16.88;;;6.68;;
35550;SDS011;21655;46.056;13.616;2022-10-19T10:03:25;11.73;;;6.45;;
35550;SDS011;21655;46.056;13.616;2022-10-19T10:06:04;16.00;;;7.97;;
35550;SDS011;21655;46.056;13.616;2022-10-19T10:08:33;17.77;;;7.38;;
35550;SDS011;21655;46.056;13.616;2022-10-19T10:11:14;10.00;;;6.78;;
35550;SDS011;21655;46.056;13.616;2022-10-19T10:13:48;16.00;;;6.82;;
35550;SDS011;21655;46.056;13.616;2022-10-19T10:16:16;11.70;;;6.13;;
35550;SDS011;21655;46.056;13.616;2022-10-19T10:18:53;13.50;;;6.10;;
35550;SDS011;21655;46.056;13.616;2022-10-19T10:21:31;17.25;;;6.60;;
35550;SDS011;21655;46.056;13.616;2022-10-19T10:24:04;12.32;;;6.28;;
35550;SDS011;21655;46.056;13.616;2022-10-19T10:26:30;13.45;;;6.50;;
35550;SDS011;21655;46.056;13.616;2022-10-19T10:28:56;12.55;;;6.15;;
35550;SDS011;21655;46.056;13.616;2022-10-19T10:31:22;13.65;;;6.63;;
35550;SDS011;21655;46.056;13.616;2022-10-19T10:33:53;12.77;;;6.38;;
35550;SDS011;21655;46.056;13.616;2022-10-19T10:36:26;12.98;;;6.00;;
35550;SDS011;21655;46.056;13.616;2022-10-19T10:39:02;13.63;;;6.00;;
35550;SDS011;21655;46.056;13.616;2022-10-19T10:41:35;9.55;;;6.97;;
35550;SDS011;21655;46.056;13.616;2022-10-19T10:44:05;9.10;;;5.55;;
35550;SDS011;21655;46.056;13.616;2022-10-19T10:46:36;12.88;;;6.70;;
35550;SDS011;21655;46.056;13.616;2022-10-19T10:49:33;10.43;;;6.05;;
35550;SDS011;21655;46.056;13.616;2022-10-19T10:52:04;11.40;;;6.28;;
35550;SDS011;21655;46.056;13.616;2022-10-19T10:54:33;11.65;;;6.30;;
35550;SDS011;21655;46.056;13.616;2022-10-19T10:59:52;13.15;;;6.63;;
35550;SDS011;21655;46.056;13.616;2022-10-19T11:02:39;11.38;;;6.38;;
35550;SDS011;21655;46.056;13.616;2022-10-19T11:05:26;9.38;;;5.88;;
35550;SDS011;21655;46.056;13.616;2022-10-19T11:10:50;8.70;;;5.68;;
35550;SDS011;21655;46.056;13.616;2022-10-19T11:18:21;13.00;;;6.43;;
35550;SDS011;21655;46.056;13.616;2022-10-19T11:20:53;10.88;;;5.78;;
35550;SDS011;21655;46.056;13.616;2022-10-19T11:31:55;10.43;;;5.75;;
35550;SDS011;21655;46.056;13.616;2022-10-19T11:37:18;12.23;;;5.72;;
35550;SDS011;21655;46.056;13.616;2022-10-19T11:42:37;9.57;;;5.60;;
35550;SDS011;21655;46.056;13.616;2022-10-19T11:54:11;12.77;;;5.50;;
35550;SDS011;21655;46.056;13.616;2022-10-19T11:56:46;11.20;;;5.13;;
35550;SDS011;21655;46.056;13.616;2022-10-19T12:02:09;9.07;;;6.03;;
35550;SDS011;21655;46.056;13.616;2022-10-19T12:05:00;14.32;;;5.40;;
35550;SDS011;21655;46.056;13.616;2022-10-19T12:07:43;8.57;;;5.25;;
35550;SDS011;21655;46.056;13.616;2022-10-19T12:10:48;10.55;;;5.38;;
35550;SDS011;21655;46.056;13.616;2022-10-19T12:13:22;10.75;;;4.80;;
35550;SDS011;21655;46.056;13.616;2022-10-19T12:15:56;9.65;;;4.57;;
35550;SDS011;21655;46.056;13.616;2022-10-19T12:18:37;13.30;;;5.10;;
35550;SDS011;21655;46.056;13.616;2022-10-19T12:21:18;7.65;;;5.10;;
35550;SDS011;21655;46.056;13.616;2022-10-19T12:23:48;13.82;;;5.68;;
35550;SDS011;21655;46.056;13.616;2022-10-19T12:26:16;8.60;;;5.28;;
35550;SDS011;21655;46.056;13.616;2022-10-19T12:28:53;9.45;;;5.32;;
35550;SDS011;21655;46.056;13.616;2022-10-19T12:31:22;10.93;;;5.40;;
35550;SDS011;21655;46.056;13.616;2022-10-19T12:37:21;9.93;;;5.43;;
35550;SDS011;21655;46.056;13.616;2022-10-19T12:42:32;7.65;;;4.90;;
35550;SDS011;21655;46.056;13.616;2022-10-19T12:53:32;11.73;;;5.07;;
35550;SDS011;21655;46.056;13.616;2022-10-19T12:56:00;10.18;;;5.13;;
35550;SDS011;21655;46.056;13.616;2022-10-19T12:58:37;10.48;;;4.72;;
35550;SDS011;21655;46.056;13.616;2022-10-19T13:01:14;8.30;;;4.68;;
35550;SDS011;21655;46.056;13.616;2022-10-19T13:03:41;7.47;;;4.60;;
35550;SDS011;21655;46.056;13.616;2022-10-19T13:09:03;6.18;;;4.50;;
35550;SDS011;21655;46.056;13.616;2022-10-19T13:11:29;6.20;;;4.20;;
35550;SDS011;21655;46.056;13.616;2022-10-19T13:13:57;10.32;;;4.78;;
35550;SDS011;21655;46.056;13.616;2022-10-19T13:29:38;9.00;;;4.68;;
35550;SDS011;21655;46.056;13.616;2022-10-19T13:35:19;10.98;;;4.65;;
35550;SDS011;21655;46.056;13.616;2022-10-19T13:43:17;5.88;;;4.28;;
35550;SDS011;21655;46.056;13.616;2022-10-19T13:48:42;8.75;;;4.40;;
35550;SDS011;21655;46.056;13.616;2022-10-19T13:57:08;11.10;;;4.70;;
35550;SDS011;21655;46.056;13.616;2022-10-19T14:00:08;9.07;;;4.45;;
35550;SDS011;21655;46.056;13.616;2022-10-19T14:05:49;14.23;;;5.63;;
35550;SDS011;21655;46.056;13.616;2022-10-19T14:11:14;12.32;;;4.60;;
35550;SDS011;21655;46.056;13.616;2022-10-19T14:13:43;11.57;;;4.50;;
35550;SDS011;21655;46.056;13.616;2022-10-19T14:16:16;8.90;;;4.38;;
35550;SDS011;21655;46.056;13.616;2022-10-19T14:18:50;12.80;;;4.93;;
35550;SDS011;21655;46.056;13.616;2022-10-19T14:21:27;12.43;;;4.90;;
35550;SDS011;21655;46.056;13.616;2022-10-19T14:23:55;13.60;;;4.90;;
35550;SDS011;21655;46.056;13.616;2022-10-19T14:26:21;10.32;;;4.78;;
35550;SDS011;21655;46.056;13.616;2022-10-19T14:28:53;9.32;;;4.85;;
35550;SDS011;21655;46.056;13.616;2022-10-19T14:31:21;11.07;;;5.03;;
35550;SDS011;21655;46.056;13.616;2022-10-19T14:33:50;12.80;;;5.47;;
35550;SDS011;21655;46.056;13.616;2022-10-19T14:36:21;9.32;;;4.85;;
35550;SDS011;21655;46.056;13.616;2022-10-19T14:38:53;15.00;;;4.95;;
35550;SDS011;21655;46.056;13.616;2022-10-19T14:41:27;11.68;;;5.57;;
35550;SDS011;21655;46.056;13.616;2022-10-19T14:43:55;14.52;;;5.03;;
35550;SDS011;21655;46.056;13.616;2022-10-19T14:46:29;18.20;;;5.03;;
35550;SDS011;21655;46.056;13.616;2022-10-19T14:49:03;12.68;;;4.97;;
35550;SDS011;21655;46.056;13.616;2022-10-19T14:54:13;11.70;;;4.95;;
35550;SDS011;21655;46.056;13.616;2022-10-19T15:01:49;9.38;;;5.30;;
35550;SDS011;21655;46.056;13.616;2022-10-19T15:04:19;8.75;;;5.38;;
35550;SDS011;21655;46.056;13.616;2022-10-19T15:06:48;14.10;;;5.45;;
35550;SDS011;21655;46.056;13.616;2022-10-19T15:09:20;10.90;;;5.18;;
35550;SDS011;21655;46.056;13.616;2022-10-19T15:11:48;14.15;;;6.43;;
35550;SDS011;21655;46.056;13.616;2022-10-19T15:14:16;11.13;;;6.13;;
35550;SDS011;21655;46.056;13.616;2022-10-19T15:16:52;12.50;;;6.00;;
35550;SDS011;21655;46.056;13.616;2022-10-19T15:24:38;11.80;;;5.50;;
35550;SDS011;21655;46.056;13.616;2022-10-19T15:27:18;16.30;;;5.95;;
35550;SDS011;21655;46.056;13.616;2022-10-19T15:32:43;10.98;;;5.55;;
35550;SDS011;21655;46.056;13.616;2022-10-19T15:35:18;11.50;;;6.07;;
35550;SDS011;21655;46.056;13.616;2022-10-19T15:37:49;18.50;;;6.10;;
35550;SDS011;21655;46.056;13.616;2022-10-19T15:40:18;10.10;;;5.50;;
35550;SDS011;21655;46.056;13.616;2022-10-19T15:42:46;15.60;;;6.43;;
35550;SDS011;21655;46.056;13.616;2022-10-19T15:50:37;11.43;;;6.05;;
35550;SDS011;21655;46.056;13.616;2022-10-19T15:53:07;13.93;;;6.68;;
35550;SDS011;21655;46.056;13.616;2022-10-19T15:55:32;11.73;;;6.10;;
35550;SDS011;21655;46.056;13.616;2022-10-19T15:57:58;15.32;;;6.90;;
35550;SDS011;21655;46.056;13.616;2022-10-19T16:00:24;20.33;;;7.70;;
35550;SDS011;21655;46.056;13.616;2022-10-19T16:02:51;18.60;;;6.25;;
35550;SDS011;21655;46.056;13.616;2022-10-19T16:05:16;17.13;;;6.95;;
35550;SDS011;21655;46.056;13.616;2022-10-19T16:07:42;17.45;;;7.03;;
35550;SDS011;21655;46.056;13.616;2022-10-19T16:10:18;12.68;;;6.70;;
35550;SDS011;21655;46.056;13.616;2022-10-19T16:12:48;16.77;;;7.90;;
35550;SDS011;21655;46.056;13.616;2022-10-19T16:15:15;17.75;;;7.35;;
35550;SDS011;21655;46.056;13.616;2022-10-19T16:17:48;19.67;;;7.55;;
35550;SDS011;21655;46.056;13.616;2022-10-19T16:20:16;18.40;;;7.72;;
35550;SDS011;21655;46.056;13.616;2022-10-19T16:22:42;24.98;;;8.05;;
35550;SDS011;21655;46.056;13.616;2022-10-19T16:25:09;16.80;;;7.90;;
35550;SDS011;21655;46.056;13.616;2022-10-19T16:27:35;20.35;;;8.60;;
35550;SDS011;21655;46.056;13.616;2022-10-19T16:30:00;19.42;;;9.45;;
35550;SDS011;21655;46.056;13.616;2022-10-19T16:32:25;22.63;;;9.20;;
35550;SDS011;21655;46.056;13.616;2022-10-19T16:34:51;19.75;;;8.98;;
35550;SDS011;21655;46.056;13.616;2022-10-19T16:37:16;21.90;;;9.32;;
35550;SDS011;21655;46.056;13.616;2022-10-19T16:39:42;20.20;;;9.18;;
35550;SDS011;21655;46.056;13.616;2022-10-19T16:42:07;21.45;;;8.55;;
35550;SDS011;21655;46.056;13.616;2022-10-19T16:44:33;21.33;;;9.30;;
35550;SDS011;21655;46.056;13.616;2022-10-19T16:46:58;24.17;;;9.18;;
35550;SDS011;21655;46.056;13.616;2022-10-19T16:49:24;28.52;;;11.20;;
35550;SDS011;21655;46.056;13.616;2022-10-19T16:51:50;19.90;;;10.27;;
35550;SDS011;21655;46.056;13.616;2022-10-19T16:54:15;25.77;;;11.07;;
35550;SDS011;21655;46.056;13.616;2022-10-19T16:56:45;23.27;;;10.23;;
35550;SDS011;21655;46.056;13.616;2022-10-19T16:59:12;20.98;;;9.50;;
35550;SDS011;21655;46.056;13.616;2022-10-19T17:01:40;25.05;;;10.38;;
35550;SDS011;21655;46.056;13.616;2022-10-19T17:04:08;19.00;;;11.05;;